sensor_id;sensor_type;location;lat;lon;timestamp;temperature;humidity
2999;DHT22;1509;51.964;7.628;2023-05-10T00:00:52;13.60;99.90
2999;DHT22;1509;51.964;7.628;2023-05-10T00:03:18;13.50;99.90
2999;DHT22;1509;51.964;7.628;2023-05-10T00:05:43;13.60;99.90
2999;DHT22;1509;51.964;7.628;2023-05-10T00:08:09;13.60;99.90
2999;DHT22;1509;51.964;7.628;2023-05-10T00:10:35;13.50;99.90
2999;DHT22;1509;51.964;7.628;2023-05-10T00:13:01;13.50;99.90
2999;DHT22;1509;51.964;7.628;2023-05-10T00:15:27;13.60;99.90
2999;DHT22;1509;51.964;7.628;2023-05-10T00:17:53;13.60;99.90
2999;DHT22;1509;51.964;7.628;2023-05-10T00:22:47;13.50;99.90
2999;DHT22;1509;51.964;7.628;2023-05-10T00:27:39;13.40;99.90
2999;DHT22;1509;51.964;7.628;2023-05-10T00:39:50;13.50;99.90
2999;DHT22;1509;51.964;7.628;2023-05-10T00:42:16;13.50;99.90
2999;DHT22;1509;51.964;7.628;2023-05-10T00:44:42;13.50;99.90
2999;DHT22;1509;51.964;7.628;2023-05-10T00:49:35;13.50;99.90
2999;DHT22;1509;51.964;7.628;2023-05-10T00:52:01;13.60;99.90
2999;DHT22;1509;51.964;7.628;2023-05-10T00:54:28;13.60;99.90
2999;DHT22;1509;51.964;7.628;2023-05-10T00:56:53;13.50;99.90
2999;DHT22;1509;51.964;7.628;2023-05-10T00:59:22;13.50;99.90
2999;DHT22;1509;51.964;7.628;2023-05-10T01:01:48;13.50;99.90
2999;DHT22;1509;51.964;7.628;2023-05-10T01:04:14;13.50;99.90
2999;DHT22;1509;51.964;7.628;2023-05-10T01:06:40;13.40;99.90
2999;DHT22;1509;51.964;7.628;2023-05-10T01:09:06;13.40;99.90
2999;DHT22;1509;51.964;7.628;2023-05-10T01:11:36;13.40;99.90
2999;DHT22;1509;51.964;7.628;2023-05-10T01:14:03;13.50;99.90
2999;DHT22;1509;51.964;7.628;2023-05-10T01:16:40;13.40;99.90
2999;DHT22;1509;51.964;7.628;2023-05-10T01:25:18;13.30;99.90
2999;DHT22;1509;51.964;7.628;2023-05-10T01:38:21;13.20;99.90
2999;DHT22;1509;51.964;7.628;2023-05-10T01:46:06;13.20;99.90
2999;DHT22;1509;51.964;7.628;2023-05-10T01:51:28;13.20;99.90
2999;DHT22;1509;51.964;7.628;2023-05-10T01:54:00;13.50;99.90
2999;DHT22;1509;51.964;7.628;2023-05-10T02:08:45;12.30;99.90
2999;DHT22;1509;51.964;7.628;2023-05-10T02:16:06;12.40;99.90
2999;DHT22;1509;51.964;7.628;2023-05-10T02:18:33;12.30;99.90
2999;DHT22;1509;51.964;7.628;2023-05-10T02:25:55;12.30;99.90
2999;DHT22;1509;51.964;7.628;2023-05-10T02:33:15;12.40;99.90
2999;DHT22;1509;51.964;7.628;2023-05-10T02:40:35;12.40;99.90
2999;DHT22;1509;51.964;7.628;2023-05-10T02:43:02;12.40;99.90
2999;DHT22;1509;51.964;7.628;2023-05-10T02:55:21;12.40;99.90
2999;DHT22;1509;51.964;7.628;2023-05-10T02:57:57;12.50;99.90
2999;DHT22;1509;51.964;7.628;2023-05-10T03:05:16;12.50;99.90
2999;DHT22;1509;51.964;7.628;2023-05-10T03:10:09;12.50;99.90
2999;DHT22;1509;51.964;7.628;2023-05-10T03:12:52;12.50;99.90
2999;DHT22;1509;51.964;7.628;2023-05-10T03:25:48;12.50;99.90
2999;DHT22;1509;51.964;7.628;2023-05-10T03:28:18;12.50;99.90
2999;DHT22;1509;51.964;7.628;2023-05-10T03:35:36;12.40;99.90
2999;DHT22;1509;51.964;7.628;2023-05-10T03:40:28;12.40;99.90
2999;DHT22;1509;51.964;7.628;2023-05-10T03:45:22;12.30;99.90
2999;DHT22;1509;51.964;7.628;2023-05-10T03:47:48;12.50;99.90
2999;DHT22;1509;51.964;7.628;2023-05-10T03:50:13;12.40;99.90
2999;DHT22;1509;51.964;7.628;2023-05-10T03:55:06;12.50;99.90
2999;DHT22;1509;51.964;7.628;2023-05-10T04:02:23;12.20;99.90
2999;DHT22;1509;51.964;7.628;2023-05-10T04:04:51;12.30;99.90
2999;DHT22;1509;51.964;7.628;2023-05-10T04:07:17;12.20;99.90
2999;DHT22;1509;51.964;7.628;2023-05-10T04:09:43;12.20;99.90
2999;DHT22;1509;51.964;7.628;2023-05-10T04:17:01;12.30;99.90
2999;DHT22;1509;51.964;7.628;2023-05-10T04:19:30;12.40;99.90
2999;DHT22;1509;51.964;7.628;2023-05-10T04:21:56;12.40;99.90
2999;DHT22;1509;51.964;7.628;2023-05-10T04:26:47;12.30;99.90
2999;DHT22;1509;51.964;7.628;2023-05-10T04:34:08;12.30;99.90
2999;DHT22;1509;51.964;7.628;2023-05-10T04:41:28;12.30;99.90
2999;DHT22;1509;51.964;7.628;2023-05-10T04:48:46;12.30;99.90
2999;DHT22;1509;51.964;7.628;2023-05-10T05:00:56;12.40;99.90
2999;DHT22;1509;51.964;7.628;2023-05-10T05:03:21;12.40;99.90
2999;DHT22;1509;51.964;7.628;2023-05-10T05:05:47;12.50;99.90
2999;DHT22;1509;51.964;7.628;2023-05-10T05:08:13;12.50;99.90
2999;DHT22;1509;51.964;7.628;2023-05-10T05:10:39;12.50;99.90
2999;DHT22;1509;51.964;7.628;2023-05-10T05:13:05;12.50;99.90
2999;DHT22;1509;51.964;7.628;2023-05-10T05:15:30;12.70;99.90
2999;DHT22;1509;51.964;7.628;2023-05-10T05:20:22;12.60;99.90
2999;DHT22;1509;51.964;7.628;2023-05-10T05:22:48;12.70;99.90
2999;DHT22;1509;51.964;7.628;2023-05-10T05:25:14;12.60;99.90
2999;DHT22;1509;51.964;7.628;2023-05-10T05:37:25;12.70;99.90
2999;DHT22;1509;51.964;7.628;2023-05-10T05:44:44;11.50;99.90
2999;DHT22;1509;51.964;7.628;2023-05-10T05:47:10;12.70;99.90
2999;DHT22;1509;51.964;7.628;2023-05-10T05:49:35;12.80;99.90
2999;DHT22;1509;51.964;7.628;2023-05-10T05:52:02;12.90;99.90
2999;DHT22;1509;51.964;7.628;2023-05-10T05:54:28;12.80;99.90
2999;DHT22;1509;51.964;7.628;2023-05-10T05:56:55;12.80;99.90
2999;DHT22;1509;51.964;7.628;2023-05-10T05:59:22;12.90;99.90
2999;DHT22;1509;51.964;7.628;2023-05-10T06:01:47;12.80;99.90
2999;DHT22;1509;51.964;7.628;2023-05-10T06:04:13;12.80;99.90
2999;DHT22;1509;51.964;7.628;2023-05-10T06:06:39;12.80;99.90
2999;DHT22;1509;51.964;7.628;2023-05-10T06:09:04;12.90;99.90
2999;DHT22;1509;51.964;7.628;2023-05-10T06:11:30;12.90;99.90
2999;DHT22;1509;51.964;7.628;2023-05-10T06:13:57;13.00;99.90
2999;DHT22;1509;51.964;7.628;2023-05-10T06:16:27;12.90;99.90
2999;DHT22;1509;51.964;7.628;2023-05-10T06:18:53;12.90;99.90
2999;DHT22;1509;51.964;7.628;2023-05-10T06:21:21;13.00;99.90
2999;DHT22;1509;51.964;7.628;2023-05-10T06:23:47;13.10;99.90
2999;DHT22;1509;51.964;7.628;2023-05-10T06:26:12;13.20;99.90
2999;DHT22;1509;51.964;7.628;2023-05-10T06:28:39;13.30;99.90
2999;DHT22;1509;51.964;7.628;2023-05-10T06:31:05;13.30;99.90
2999;DHT22;1509;51.964;7.628;2023-05-10T06:33:32;13.20;99.90
2999;DHT22;1509;51.964;7.628;2023-05-10T06:35:58;13.10;99.90
2999;DHT22;1509;51.964;7.628;2023-05-10T06:38:23;13.20;99.90
2999;DHT22;1509;51.964;7.628;2023-05-10T06:40:49;13.20;99.90
2999;DHT22;1509;51.964;7.628;2023-05-10T06:43:14;13.20;99.90
2999;DHT22;1509;51.964;7.628;2023-05-10T06:45:40;13.20;99.90
2999;DHT22;1509;51.964;7.628;2023-05-10T06:48:06;13.10;99.90
2999;DHT22;1509;51.964;7.628;2023-05-10T06:50:32;13.20;99.90
2999;DHT22;1509;51.964;7.628;2023-05-10T06:52:58;13.20;99.90
2999;DHT22;1509;51.964;7.628;2023-05-10T06:55:24;13.10;99.90
2999;DHT22;1509;51.964;7.628;2023-05-10T06:57:50;13.10;99.90
2999;DHT22;1509;51.964;7.628;2023-05-10T07:00:16;13.20;99.90
2999;DHT22;1509;51.964;7.628;2023-05-10T07:02:42;13.20;99.90
2999;DHT22;1509;51.964;7.628;2023-05-10T07:05:11;13.10;99.90
2999;DHT22;1509;51.964;7.628;2023-05-10T07:07:37;13.20;99.90
2999;DHT22;1509;51.964;7.628;2023-05-10T07:10:03;13.20;99.90
2999;DHT22;1509;51.964;7.628;2023-05-10T07:12:29;13.30;99.90
2999;DHT22;1509;51.964;7.628;2023-05-10T07:14:54;13.20;99.90
2999;DHT22;1509;51.964;7.628;2023-05-10T07:17:20;13.30;99.90
2999;DHT22;1509;51.964;7.628;2023-05-10T07:19:46;13.50;99.90
2999;DHT22;1509;51.964;7.628;2023-05-10T07:22:11;13.50;99.90
2999;DHT22;1509;51.964;7.628;2023-05-10T07:24:37;13.60;99.90
2999;DHT22;1509;51.964;7.628;2023-05-10T07:27:06;13.80;99.90
2999;DHT22;1509;51.964;7.628;2023-05-10T07:29:34;13.60;99.90
2999;DHT22;1509;51.964;7.628;2023-05-10T07:32:00;13.70;99.90
2999;DHT22;1509;51.964;7.628;2023-05-10T07:34:26;13.60;99.90
2999;DHT22;1509;51.964;7.628;2023-05-10T07:36:53;13.70;99.90
2999;DHT22;1509;51.964;7.628;2023-05-10T07:39:22;13.70;99.90
2999;DHT22;1509;51.964;7.628;2023-05-10T07:41:48;13.80;99.90
2999;DHT22;1509;51.964;7.628;2023-05-10T07:44:13;13.80;99.90
2999;DHT22;1509;51.964;7.628;2023-05-10T07:46:39;13.80;99.90
2999;DHT22;1509;51.964;7.628;2023-05-10T07:49:05;13.80;99.90
2999;DHT22;1509;51.964;7.628;2023-05-10T07:51:30;13.90;99.90
2999;DHT22;1509;51.964;7.628;2023-05-10T07:53:59;13.90;99.90
2999;DHT22;1509;51.964;7.628;2023-05-10T07:56:30;14.10;99.90
2999;DHT22;1509;51.964;7.628;2023-05-10T07:58:58;14.30;99.90
2999;DHT22;1509;51.964;7.628;2023-05-10T08:01:23;14.50;99.90
2999;DHT22;1509;51.964;7.628;2023-05-10T08:03:49;14.40;99.90
2999;DHT22;1509;51.964;7.628;2023-05-10T08:06:17;14.60;99.90
2999;DHT22;1509;51.964;7.628;2023-05-10T08:08:43;14.30;99.90
2999;DHT22;1509;51.964;7.628;2023-05-10T08:11:19;14.40;99.90
2999;DHT22;1509;51.964;7.628;2023-05-10T08:13:48;14.40;99.90
2999;DHT22;1509;51.964;7.628;2023-05-10T08:16:14;14.60;99.90
2999;DHT22;1509;51.964;7.628;2023-05-10T08:18:40;14.80;99.90
2999;DHT22;1509;51.964;7.628;2023-05-10T08:21:06;14.70;99.90
2999;DHT22;1509;51.964;7.628;2023-05-10T08:23:33;14.70;99.90
2999;DHT22;1509;51.964;7.628;2023-05-10T08:26:00;14.90;99.90
2999;DHT22;1509;51.964;7.628;2023-05-10T08:28:26;15.10;99.90
2999;DHT22;1509;51.964;7.628;2023-05-10T08:30:52;15.20;99.90
2999;DHT22;1509;51.964;7.628;2023-05-10T08:33:18;15.30;99.90
2999;DHT22;1509;51.964;7.628;2023-05-10T08:35:44;15.30;99.90
2999;DHT22;1509;51.964;7.628;2023-05-10T08:38:10;15.30;99.90
2999;DHT22;1509;51.964;7.628;2023-05-10T08:40:37;15.20;99.90
2999;DHT22;1509;51.964;7.628;2023-05-10T08:43:06;15.30;99.90
2999;DHT22;1509;51.964;7.628;2023-05-10T08:45:35;15.50;99.90
2999;DHT22;1509;51.964;7.628;2023-05-10T08:48:02;15.90;99.90
2999;DHT22;1509;51.964;7.628;2023-05-10T08:50:38;15.90;99.90
2999;DHT22;1509;51.964;7.628;2023-05-10T08:53:10;16.20;99.90
2999;DHT22;1509;51.964;7.628;2023-05-10T08:55:36;16.00;99.90
2999;DHT22;1509;51.964;7.628;2023-05-10T08:58:04;15.80;99.90
2999;DHT22;1509;51.964;7.628;2023-05-10T09:00:30;15.80;99.90
2999;DHT22;1509;51.964;7.628;2023-05-10T09:03:00;15.90;99.90
2999;DHT22;1509;51.964;7.628;2023-05-10T09:05:26;16.10;99.90
2999;DHT22;1509;51.964;7.628;2023-05-10T09:07:55;16.20;99.90
2999;DHT22;1509;51.964;7.628;2023-05-10T09:10:21;16.40;99.90
2999;DHT22;1509;51.964;7.628;2023-05-10T09:12:48;16.30;99.90
2999;DHT22;1509;51.964;7.628;2023-05-10T09:15:18;16.30;99.90
2999;DHT22;1509;51.964;7.628;2023-05-10T09:17:46;16.30;99.90
2999;DHT22;1509;51.964;7.628;2023-05-10T09:20:11;16.30;99.90
2999;DHT22;1509;51.964;7.628;2023-05-10T09:25:08;16.70;99.90
2999;DHT22;1509;51.964;7.628;2023-05-10T09:27:38;17.50;99.90
2999;DHT22;1509;51.964;7.628;2023-05-10T09:30:05;17.10;99.90
2999;DHT22;1509;51.964;7.628;2023-05-10T09:35:12;16.70;99.90
2999;DHT22;1509;51.964;7.628;2023-05-10T09:37:43;16.80;99.90
2999;DHT22;1509;51.964;7.628;2023-05-10T09:40:16;16.90;99.90
2999;DHT22;1509;51.964;7.628;2023-05-10T09:42:51;16.90;99.90
2999;DHT22;1509;51.964;7.628;2023-05-10T09:45:17;16.80;99.90
2999;DHT22;1509;51.964;7.628;2023-05-10T09:47:42;16.80;99.90
2999;DHT22;1509;51.964;7.628;2023-05-10T09:57:41;15.90;99.90
2999;DHT22;1509;51.964;7.628;2023-05-10T10:00:07;16.20;99.90
2999;DHT22;1509;51.964;7.628;2023-05-10T10:02:35;16.90;99.90
2999;DHT22;1509;51.964;7.628;2023-05-10T10:07:37;16.80;99.90
2999;DHT22;1509;51.964;7.628;2023-05-10T10:10:03;16.80;99.90
2999;DHT22;1509;51.964;7.628;2023-05-10T10:12:30;16.60;99.90
2999;DHT22;1509;51.964;7.628;2023-05-10T10:14:57;16.90;99.90
2999;DHT22;1509;51.964;7.628;2023-05-10T10:17:27;16.90;99.90
2999;DHT22;1509;51.964;7.628;2023-05-10T10:19:54;17.10;99.90
2999;DHT22;1509;51.964;7.628;2023-05-10T10:22:20;17.20;99.90
2999;DHT22;1509;51.964;7.628;2023-05-10T10:24:46;17.50;99.90
2999;DHT22;1509;51.964;7.628;2023-05-10T10:35:12;17.80;99.90
2999;DHT22;1509;51.964;7.628;2023-05-10T10:37:43;17.90;99.90
2999;DHT22;1509;51.964;7.628;2023-05-10T10:40:31;18.00;99.90
2999;DHT22;1509;51.964;7.628;2023-05-10T10:42:58;18.20;99.90
2999;DHT22;1509;51.964;7.628;2023-05-10T10:48:22;18.90;99.90
2999;DHT22;1509;51.964;7.628;2023-05-10T10:50:57;19.80;99.90
2999;DHT22;1509;51.964;7.628;2023-05-10T10:53:26;20.30;99.90
2999;DHT22;1509;51.964;7.628;2023-05-10T10:58:31;18.90;99.90
2999;DHT22;1509;51.964;7.628;2023-05-10T11:01:17;18.50;99.90
2999;DHT22;1509;51.964;7.628;2023-05-10T11:04:18;18.30;99.90
2999;DHT22;1509;51.964;7.628;2023-05-10T11:06:47;17.80;99.90
2999;DHT22;1509;51.964;7.628;2023-05-10T11:11:53;19.40;99.90
2999;DHT22;1509;51.964;7.628;2023-05-10T11:16:49;21.20;99.90
2999;DHT22;1509;51.964;7.628;2023-05-10T11:19:16;21.40;99.90
2999;DHT22;1509;51.964;7.628;2023-05-10T11:22:20;21.20;99.90
2999;DHT22;1509;51.964;7.628;2023-05-10T11:24:57;22.20;99.90
2999;DHT22;1509;51.964;7.628;2023-05-10T11:27:26;21.50;99.90
2999;DHT22;1509;51.964;7.628;2023-05-10T11:29:52;20.80;99.90
2999;DHT22;1509;51.964;7.628;2023-05-10T11:32:19;19.90;99.90
2999;DHT22;1509;51.964;7.628;2023-05-10T11:34:47;19.00;99.90
2999;DHT22;1509;51.964;7.628;2023-05-10T11:37:17;18.30;99.90
2999;DHT22;1509;51.964;7.628;2023-05-10T11:39:46;18.10;99.90
2999;DHT22;1509;51.964;7.628;2023-05-10T11:42:12;17.40;99.90
2999;DHT22;1509;51.964;7.628;2023-05-10T11:44:38;16.80;99.90
2999;DHT22;1509;51.964;7.628;2023-05-10T11:47:07;16.20;99.90
2999;DHT22;1509;51.964;7.628;2023-05-10T11:49:32;16.50;99.90
2999;DHT22;1509;51.964;7.628;2023-05-10T11:52:10;16.80;99.90
2999;DHT22;1509;51.964;7.628;2023-05-10T11:57:03;18.70;99.90
2999;DHT22;1509;51.964;7.628;2023-05-10T11:59:29;19.70;99.90
2999;DHT22;1509;51.964;7.628;2023-05-10T12:01:54;20.20;99.90
2999;DHT22;1509;51.964;7.628;2023-05-10T12:04:20;20.70;99.90
2999;DHT22;1509;51.964;7.628;2023-05-10T12:09:12;20.00;99.90
2999;DHT22;1509;51.964;7.628;2023-05-10T12:11:39;19.50;99.90
2999;DHT22;1509;51.964;7.628;2023-05-10T12:14:05;19.30;99.90
2999;DHT22;1509;51.964;7.628;2023-05-10T12:16:34;19.60;99.90
2999;DHT22;1509;51.964;7.628;2023-05-10T12:19:01;19.10;99.90
2999;DHT22;1509;51.964;7.628;2023-05-10T12:21:28;18.90;99.90
2999;DHT22;1509;51.964;7.628;2023-05-10T12:23:59;18.60;99.90
2999;DHT22;1509;51.964;7.628;2023-05-10T12:26:25;18.60;99.90
2999;DHT22;1509;51.964;7.628;2023-05-10T12:29:11;18.40;99.90
2999;DHT22;1509;51.964;7.628;2023-05-10T12:32:06;17.80;99.90
2999;DHT22;1509;51.964;7.628;2023-05-10T12:34:33;17.80;99.90
2999;DHT22;1509;51.964;7.628;2023-05-10T12:42:59;18.10;99.90
2999;DHT22;1509;51.964;7.628;2023-05-10T12:45:24;18.70;99.90
2999;DHT22;1509;51.964;7.628;2023-05-10T12:47:53;19.20;99.90
2999;DHT22;1509;51.964;7.628;2023-05-10T12:50:18;19.30;99.90
2999;DHT22;1509;51.964;7.628;2023-05-10T12:52:44;19.40;99.90
2999;DHT22;1509;51.964;7.628;2023-05-10T12:55:10;19.90;99.90
2999;DHT22;1509;51.964;7.628;2023-05-10T12:57:35;20.40;99.90
2999;DHT22;1509;51.964;7.628;2023-05-10T13:00:01;21.40;99.90
2999;DHT22;1509;51.964;7.628;2023-05-10T13:02:27;21.70;99.90
2999;DHT22;1509;51.964;7.628;2023-05-10T13:04:52;21.60;99.90
2999;DHT22;1509;51.964;7.628;2023-05-10T13:09:44;20.50;99.90
2999;DHT22;1509;51.964;7.628;2023-05-10T13:12:10;20.50;99.90
2999;DHT22;1509;51.964;7.628;2023-05-10T13:14:35;20.00;99.90
2999;DHT22;1509;51.964;7.628;2023-05-10T13:17:01;19.40;99.90
2999;DHT22;1509;51.964;7.628;2023-05-10T13:19:27;19.20;99.90
2999;DHT22;1509;51.964;7.628;2023-05-10T13:21:52;19.00;99.90
2999;DHT22;1509;51.964;7.628;2023-05-10T13:24:18;18.80;99.90
2999;DHT22;1509;51.964;7.628;2023-05-10T13:26:44;18.60;99.90
2999;DHT22;1509;51.964;7.628;2023-05-10T13:29:10;18.30;99.90
2999;DHT22;1509;51.964;7.628;2023-05-10T13:31:35;17.80;99.90
2999;DHT22;1509;51.964;7.628;2023-05-10T13:34:01;17.60;99.90
2999;DHT22;1509;51.964;7.628;2023-05-10T13:36:28;17.70;99.90
2999;DHT22;1509;51.964;7.628;2023-05-10T13:38:53;17.10;99.90
2999;DHT22;1509;51.964;7.628;2023-05-10T13:41:19;17.00;99.90
2999;DHT22;1509;51.964;7.628;2023-05-10T13:43:44;16.90;99.90
2999;DHT22;1509;51.964;7.628;2023-05-10T13:46:10;16.70;99.90
2999;DHT22;1509;51.964;7.628;2023-05-10T13:48:36;16.70;99.90
2999;DHT22;1509;51.964;7.628;2023-05-10T13:51:04;16.50;99.90
2999;DHT22;1509;51.964;7.628;2023-05-10T13:53:30;16.40;99.90
2999;DHT22;1509;51.964;7.628;2023-05-10T13:55:56;16.30;99.90
2999;DHT22;1509;51.964;7.628;2023-05-10T13:58:22;16.40;99.90
2999;DHT22;1509;51.964;7.628;2023-05-10T14:00:49;16.20;99.90
2999;DHT22;1509;51.964;7.628;2023-05-10T14:03:14;16.40;99.90
2999;DHT22;1509;51.964;7.628;2023-05-10T14:05:40;16.50;99.90
2999;DHT22;1509;51.964;7.628;2023-05-10T14:08:05;16.60;99.90
2999;DHT22;1509;51.964;7.628;2023-05-10T14:10:31;16.60;99.90
2999;DHT22;1509;51.964;7.628;2023-05-10T14:12:59;16.60;99.90
2999;DHT22;1509;51.964;7.628;2023-05-10T14:15:25;16.50;99.90
2999;DHT22;1509;51.964;7.628;2023-05-10T14:17:51;16.60;99.90
2999;DHT22;1509;51.964;7.628;2023-05-10T14:20:25;16.50;99.90
2999;DHT22;1509;51.964;7.628;2023-05-10T14:22:51;16.40;99.90
2999;DHT22;1509;51.964;7.628;2023-05-10T14:25:19;16.50;99.90
2999;DHT22;1509;51.964;7.628;2023-05-10T14:27:48;16.40;99.90
2999;DHT22;1509;51.964;7.628;2023-05-10T14:30:13;16.40;99.90
2999;DHT22;1509;51.964;7.628;2023-05-10T14:32:40;16.40;99.90
2999;DHT22;1509;51.964;7.628;2023-05-10T14:35:09;16.40;99.90
2999;DHT22;1509;51.964;7.628;2023-05-10T14:37:34;16.50;99.90
2999;DHT22;1509;51.964;7.628;2023-05-10T14:40:00;16.80;99.90
2999;DHT22;1509;51.964;7.628;2023-05-10T14:42:29;16.70;99.90
2999;DHT22;1509;51.964;7.628;2023-05-10T14:44:55;17.00;99.90
2999;DHT22;1509;51.964;7.628;2023-05-10T14:47:20;17.30;99.90
2999;DHT22;1509;51.964;7.628;2023-05-10T14:49:46;17.50;99.90
2999;DHT22;1509;51.964;7.628;2023-05-10T14:52:12;17.50;99.90
2999;DHT22;1509;51.964;7.628;2023-05-10T14:54:39;17.50;99.90
2999;DHT22;1509;51.964;7.628;2023-05-10T14:57:06;17.50;99.90
2999;DHT22;1509;51.964;7.628;2023-05-10T14:59:32;17.60;99.90
2999;DHT22;1509;51.964;7.628;2023-05-10T15:01:58;17.60;99.90
2999;DHT22;1509;51.964;7.628;2023-05-10T15:04:27;17.60;99.90
2999;DHT22;1509;51.964;7.628;2023-05-10T15:06:52;17.70;99.90
2999;DHT22;1509;51.964;7.628;2023-05-10T15:09:24;17.60;99.90
2999;DHT22;1509;51.964;7.628;2023-05-10T15:11:50;17.60;99.90
2999;DHT22;1509;51.964;7.628;2023-05-10T15:14:16;17.70;99.90
2999;DHT22;1509;51.964;7.628;2023-05-10T15:16:41;17.80;99.90
2999;DHT22;1509;51.964;7.628;2023-05-10T15:19:07;18.10;99.90
2999;DHT22;1509;51.964;7.628;2023-05-10T15:21:32;18.20;99.90
2999;DHT22;1509;51.964;7.628;2023-05-10T15:24:04;18.20;99.90
2999;DHT22;1509;51.964;7.628;2023-05-10T15:26:30;18.20;99.90
2999;DHT22;1509;51.964;7.628;2023-05-10T15:28:56;18.20;99.90
2999;DHT22;1509;51.964;7.628;2023-05-10T15:31:22;18.30;99.90
2999;DHT22;1509;51.964;7.628;2023-05-10T15:33:47;18.40;99.90
2999;DHT22;1509;51.964;7.628;2023-05-10T15:36:13;18.30;99.90
2999;DHT22;1509;51.964;7.628;2023-05-10T15:38:38;18.50;99.90
2999;DHT22;1509;51.964;7.628;2023-05-10T15:41:04;18.40;99.90
2999;DHT22;1509;51.964;7.628;2023-05-10T15:43:30;18.30;99.90
2999;DHT22;1509;51.964;7.628;2023-05-10T15:45:56;17.90;99.90
2999;DHT22;1509;51.964;7.628;2023-05-10T15:48:27;18.20;99.90
2999;DHT22;1509;51.964;7.628;2023-05-10T15:50:53;18.20;99.90
2999;DHT22;1509;51.964;7.628;2023-05-10T15:53:19;18.30;99.90
2999;DHT22;1509;51.964;7.628;2023-05-10T15:55:44;18.30;99.90
2999;DHT22;1509;51.964;7.628;2023-05-10T15:58:12;18.20;99.90
2999;DHT22;1509;51.964;7.628;2023-05-10T16:00:38;18.10;99.90
2999;DHT22;1509;51.964;7.628;2023-05-10T16:03:03;18.10;99.90
2999;DHT22;1509;51.964;7.628;2023-05-10T16:05:29;17.90;99.90
2999;DHT22;1509;51.964;7.628;2023-05-10T16:07:58;18.30;99.90
2999;DHT22;1509;51.964;7.628;2023-05-10T16:10:24;18.40;99.90
2999;DHT22;1509;51.964;7.628;2023-05-10T16:12:49;18.70;99.90
2999;DHT22;1509;51.964;7.628;2023-05-10T16:15:15;18.50;99.90
2999;DHT22;1509;51.964;7.628;2023-05-10T16:17:40;18.60;99.90
2999;DHT22;1509;51.964;7.628;2023-05-10T16:20:07;18.70;99.90
2999;DHT22;1509;51.964;7.628;2023-05-10T16:22:32;18.80;99.90
2999;DHT22;1509;51.964;7.628;2023-05-10T16:24:58;18.60;99.90
2999;DHT22;1509;51.964;7.628;2023-05-10T16:27:24;18.70;99.90
2999;DHT22;1509;51.964;7.628;2023-05-10T16:29:52;18.70;99.90
2999;DHT22;1509;51.964;7.628;2023-05-10T16:32:18;18.70;99.90
2999;DHT22;1509;51.964;7.628;2023-05-10T16:34:44;18.70;99.90
2999;DHT22;1509;51.964;7.628;2023-05-10T16:37:09;18.50;99.90
2999;DHT22;1509;51.964;7.628;2023-05-10T16:39:35;18.50;99.90
2999;DHT22;1509;51.964;7.628;2023-05-10T16:42:01;18.40;99.90
2999;DHT22;1509;51.964;7.628;2023-05-10T16:44:27;18.30;99.90
2999;DHT22;1509;51.964;7.628;2023-05-10T16:46:53;18.30;99.90
2999;DHT22;1509;51.964;7.628;2023-05-10T16:49:19;18.30;99.90
2999;DHT22;1509;51.964;7.628;2023-05-10T16:51:45;18.30;99.90
2999;DHT22;1509;51.964;7.628;2023-05-10T16:54:10;18.40;99.90
2999;DHT22;1509;51.964;7.628;2023-05-10T16:56:36;18.50;99.90
2999;DHT22;1509;51.964;7.628;2023-05-10T16:59:01;18.40;99.90
2999;DHT22;1509;51.964;7.628;2023-05-10T17:01:33;18.40;99.90
2999;DHT22;1509;51.964;7.628;2023-05-10T17:03:59;18.30;99.90
2999;DHT22;1509;51.964;7.628;2023-05-10T17:06:24;18.10;99.90
2999;DHT22;1509;51.964;7.628;2023-05-10T17:08:50;18.30;99.90
2999;DHT22;1509;51.964;7.628;2023-05-10T17:11:16;18.30;99.90
2999;DHT22;1509;51.964;7.628;2023-05-10T17:13:44;18.30;99.90
2999;DHT22;1509;51.964;7.628;2023-05-10T17:16:09;18.20;99.90
2999;DHT22;1509;51.964;7.628;2023-05-10T17:18:37;18.10;99.90
2999;DHT22;1509;51.964;7.628;2023-05-10T17:21:03;18.10;99.90
2999;DHT22;1509;51.964;7.628;2023-05-10T17:23:29;18.10;99.90
2999;DHT22;1509;51.964;7.628;2023-05-10T17:25:54;18.00;99.90
2999;DHT22;1509;51.964;7.628;2023-05-10T17:28:20;18.00;99.90
2999;DHT22;1509;51.964;7.628;2023-05-10T17:30:46;18.00;99.90
2999;DHT22;1509;51.964;7.628;2023-05-10T17:33:11;18.00;99.90
2999;DHT22;1509;51.964;7.628;2023-05-10T17:35:37;18.00;99.90
2999;DHT22;1509;51.964;7.628;2023-05-10T17:38:03;18.00;99.90
2999;DHT22;1509;51.964;7.628;2023-05-10T17:40:28;18.00;99.90
2999;DHT22;1509;51.964;7.628;2023-05-10T17:42:54;17.90;99.90
2999;DHT22;1509;51.964;7.628;2023-05-10T17:45:23;17.90;99.90
2999;DHT22;1509;51.964;7.628;2023-05-10T17:47:48;18.00;99.90
2999;DHT22;1509;51.964;7.628;2023-05-10T17:50:14;18.00;99.90
2999;DHT22;1509;51.964;7.628;2023-05-10T17:52:40;17.90;99.90
2999;DHT22;1509;51.964;7.628;2023-05-10T17:55:05;17.90;99.90
2999;DHT22;1509;51.964;7.628;2023-05-10T17:57:31;17.70;99.90
2999;DHT22;1509;51.964;7.628;2023-05-10T17:59:57;17.60;99.90
2999;DHT22;1509;51.964;7.628;2023-05-10T18:02:26;17.60;99.90
2999;DHT22;1509;51.964;7.628;2023-05-10T18:04:52;17.80;99.90
2999;DHT22;1509;51.964;7.628;2023-05-10T18:07:17;17.70;99.90
2999;DHT22;1509;51.964;7.628;2023-05-10T18:09:43;17.60;99.90
2999;DHT22;1509;51.964;7.628;2023-05-10T18:12:09;17.60;99.90
2999;DHT22;1509;51.964;7.628;2023-05-10T18:14:34;17.60;99.90
2999;DHT22;1509;51.964;7.628;2023-05-10T18:17:00;17.60;99.90
2999;DHT22;1509;51.964;7.628;2023-05-10T18:19:26;17.70;99.90
2999;DHT22;1509;51.964;7.628;2023-05-10T18:21:51;17.60;99.90
2999;DHT22;1509;51.964;7.628;2023-05-10T18:24:20;17.40;99.90
2999;DHT22;1509;51.964;7.628;2023-05-10T18:26:48;17.50;99.90
2999;DHT22;1509;51.964;7.628;2023-05-10T18:29:16;17.50;99.90
2999;DHT22;1509;51.964;7.628;2023-05-10T18:31:42;17.50;99.90
2999;DHT22;1509;51.964;7.628;2023-05-10T18:34:07;17.50;99.90
2999;DHT22;1509;51.964;7.628;2023-05-10T18:36:33;17.60;99.90
2999;DHT22;1509;51.964;7.628;2023-05-10T18:38:59;17.50;99.90
2999;DHT22;1509;51.964;7.628;2023-05-10T18:41:25;17.40;99.90
2999;DHT22;1509;51.964;7.628;2023-05-10T18:43:53;17.50;99.90
2999;DHT22;1509;51.964;7.628;2023-05-10T18:46:19;17.40;99.90
2999;DHT22;1509;51.964;7.628;2023-05-10T18:48:45;17.50;99.90
2999;DHT22;1509;51.964;7.628;2023-05-10T18:51:10;17.50;99.90
2999;DHT22;1509;51.964;7.628;2023-05-10T18:53:37;17.40;99.90
2999;DHT22;1509;51.964;7.628;2023-05-10T18:56:02;17.40;99.90
2999;DHT22;1509;51.964;7.628;2023-05-10T18:58:28;17.40;99.90
2999;DHT22;1509;51.964;7.628;2023-05-10T19:00:54;17.40;99.90
2999;DHT22;1509;51.964;7.628;2023-05-10T19:03:20;17.50;99.90
2999;DHT22;1509;51.964;7.628;2023-05-10T19:05:47;17.30;99.90
2999;DHT22;1509;51.964;7.628;2023-05-10T19:08:16;17.20;99.90
2999;DHT22;1509;51.964;7.628;2023-05-10T19:10:42;17.10;99.90
2999;DHT22;1509;51.964;7.628;2023-05-10T19:13:08;17.10;99.90
2999;DHT22;1509;51.964;7.628;2023-05-10T19:15:34;17.20;99.90
2999;DHT22;1509;51.964;7.628;2023-05-10T19:17:59;17.10;99.90
2999;DHT22;1509;51.964;7.628;2023-05-10T19:20:25;17.00;99.90
2999;DHT22;1509;51.964;7.628;2023-05-10T19:22:53;17.00;99.90
2999;DHT22;1509;51.964;7.628;2023-05-10T19:25:19;16.90;99.90
2999;DHT22;1509;51.964;7.628;2023-05-10T19:30:11;16.80;99.90
2999;DHT22;1509;51.964;7.628;2023-05-10T19:32:37;16.80;99.90
2999;DHT22;1509;51.964;7.628;2023-05-10T19:35:02;16.80;99.90
2999;DHT22;1509;51.964;7.628;2023-05-10T19:37:28;16.80;99.90